Time;durP1;ratioP1;P1;durP2;ratioP2;P2;SDS_P1;SDS_P2;PMS_P1;PMS_P2;Temp;Humidity;BMP_temperature;BMP_pressure;BME280_temperature;BME280_humidity;BME280_pressure;Samples;Min_cycle;Max_cycle;Signal;HPM_P1;HPM_P2
2023/10/17 03:50:07;;;;;;;0.75;0.57;;;;;;;;;;5169162;27;20389;-82
2023/10/17 03:52:32;;;;;;;0.28;0.28;;;;;;;;;;5167906;27;20042;-82
2023/10/17 03:55:01;;;;;;;0.50;0.50;;;;;;;;;;5148701;27;20023;-82
2023/10/17 03:57:28;;;;;;;0.70;0.70;;;;;;;;;;5167091;27;20026;-81
2023/10/17 03:59:56;;;;;;;0.25;0.25;;;;;;;;;;5168647;27;20031;-82
2023/10/17 04:02:24;;;;;;;1.00;0.95;;;;;;;;;;5167356;27;20034;-82
2023/10/17 04:04:53;;;;;;;0.10;0.10;;;;;;;;;;5168844;27;20034;-83
2023/10/17 04:07:23;;;;;;;0.87;0.67;;;;;;;;;;5166733;27;20078;-81
2023/10/17 04:10:19;;;;;;;0.47;0.43;;;;;;;;;;5169565;27;20030;-82
2023/10/17 04:15:31;;;;;;;1.55;0.85;;;;;;;;;;5169891;27;20863;-83
2023/10/17 04:17:58;;;;;;;2.45;1.13;;;;;;;;;;5152737;27;20498;-81
2023/10/17 04:20:25;;;;;;;0.63;0.63;;;;;;;;;;5169452;27;20086;-83
2023/10/17 04:22:51;;;;;;;0.70;0.70;;;;;;;;;;5170523;27;20053;-82
2023/10/17 04:25:20;;;;;;;0.75;0.75;;;;;;;;;;5146580;27;20692;-82
2023/10/17 04:27:54;;;;;;;0.70;0.70;;;;;;;;;;5160611;27;20018;-82
2023/10/17 04:30:28;;;;;;;0.98;0.77;;;;;;;;;;5149120;27;20123;-83
2023/10/17 04:32:59;;;;;;;1.05;0.93;;;;;;;;;;5172363;27;20038;-82
2023/10/17 04:35:25;;;;;;;0.52;0.52;;;;;;;;;;5172449;27;20029;-84
2023/10/17 04:40:38;;;;;;;2.67;1.05;;;;;;;;;;5173800;27;20087;-84
2023/10/17 04:43:43;;;;;;;1.83;0.60;;;;;;;;;;5153721;27;20586;-85
2023/10/17 04:45:55;;;;;;;1.67;0.85;;;;;;;;;;5172429;27;20583;-83
2023/10/17 04:48:32;;;;;;;0.50;0.50;;;;;;;;;;5151797;27;20052;-84
2023/10/17 04:51:07;;;;;;;1.27;0.98;;;;;;;;;;5154417;27;20033;-83
2023/10/17 04:53:35;;;;;;;1.23;0.90;;;;;;;;;;5148470;27;20034;-83
2023/10/17 04:56:11;;;;;;;2.65;0.93;;;;;;;;;;5148481;27;20463;-83
2023/10/17 04:58:48;;;;;;;2.85;1.83;;;;;;;;;;5149780;27;20434;-84
2023/10/17 05:01:33;;;;;;;1.45;1.35;;;;;;;;;;5155043;27;20031;-84
2023/10/17 05:03:59;;;;;;;0.40;0.40;;;;;;;;;;5132385;27;20051;-83
2023/10/17 06:17:47;;;;;;;2.00;1.73;;;;;;;;;;5143478;27;20030;-83
2023/10/17 06:20:13;;;;;;;1.90;1.07;;;;;;;;;;5148912;27;20109;-82
2023/10/17 06:28:27;;;;;;;0.50;0.45;;;;;;;;;;5151949;27;20058;-83
2023/10/17 06:33:37;;;;;;;1.92;1.05;;;;;;;;;;5151878;27;20045;-81
2023/10/17 06:36:13;;;;;;;0.70;0.70;;;;;;;;;;5128676;27;20462;-83
2023/10/17 06:38:47;;;;;;;0.85;0.65;;;;;;;;;;5133234;27;20018;-84
2023/10/17 06:41:27;;;;;;;2.53;0.50;;;;;;;;;;5147726;27;20031;-85
2023/10/17 06:44:06;;;;;;;1.17;0.50;;;;;;;;;;5132483;27;20478;-82
2023/10/17 06:46:40;;;;;;;3.03;1.02;;;;;;;;;;5134662;27;20034;-84
2023/10/17 06:49:09;;;;;;;3.28;1.27;;;;;;;;;;5134401;27;20037;-83
2023/10/17 06:51:39;;;;;;;1.55;1.08;;;;;;;;;;5134280;27;20022;-85
2023/10/17 06:54:12;;;;;;;1.05;0.73;;;;;;;;;;5133554;27;20462;-83
2023/10/17 06:56:41;;;;;;;0.60;0.50;;;;;;;;;;5151555;27;20026;-85
2023/10/17 06:59:53;;;;;;;2.33;0.75;;;;;;;;;;5133155;27;20019;-84
2023/10/17 07:02:09;;;;;;;0.45;0.45;;;;;;;;;;5137321;27;20038;-84
2023/10/17 07:04:37;;;;;;;1.73;1.20;;;;;;;;;;5134283;27;20058;-85
2023/10/17 07:07:03;;;;;;;0.98;0.85;;;;;;;;;;5152720;27;20766;-84
2023/10/17 07:09:30;;;;;;;1.73;0.85;;;;;;;;;;5149904;27;20462;-85
2023/10/17 07:12:02;;;;;;;1.25;0.88;;;;;;;;;;5133610;27;20038;-84
2023/10/17 07:14:27;;;;;;;0.57;0.57;;;;;;;;;;5146640;27;20034;-85
2023/10/17 07:17:00;;;;;;;1.27;0.63;;;;;;;;;;5133938;27;20381;-85
2023/10/17 07:24:33;;;;;;;4.95;0.80;;;;;;;;;;5151903;27;20528;-86
2023/10/17 07:26:59;;;;;;;0.95;0.45;;;;;;;;;;5150428;27;20026;-83
2023/10/17 07:29:33;;;;;;;0.60;0.60;;;;;;;;;;5153150;27;20465;-85
2023/10/17 07:32:09;;;;;;;1.25;0.93;;;;;;;;;;5151468;27;20122;-83
2023/10/17 07:34:35;;;;;;;0.68;0.63;;;;;;;;;;5133612;27;20481;-82
2023/10/17 07:39:59;;;;;;;1.90;1.73;;;;;;;;;;5153258;27;20494;-81
2023/10/17 07:42:29;;;;;;;1.55;0.77;;;;;;;;;;5152928;27;20027;-85
2023/10/17 07:44:57;;;;;;;1.63;1.52;;;;;;;;;;5150751;27;20027;-84
2023/10/17 07:47:33;;;;;;;0.90;0.85;;;;;;;;;;5152271;27;20042;-84
2023/10/17 07:49:59;;;;;;;1.00;0.57;;;;;;;;;;5132906;27;20042;-83
2023/10/17 07:52:25;;;;;;;2.92;0.88;;;;;;;;;;5149930;27;20027;-82
2023/10/17 07:54:58;;;;;;;2.25;1.02;;;;;;;;;;5130913;27;20118;-81
2023/10/17 07:57:28;;;;;;;1.25;0.88;;;;;;;;;;5128005;27;20023;-84
2023/10/17 07:59:59;;;;;;;4.57;1.00;;;;;;;;;;5149922;27;20023;-83
2023/10/17 08:02:30;;;;;;;5.22;0.95;;;;;;;;;;5148646;27;20027;-85
2023/10/17 08:04:57;;;;;;;0.70;0.70;;;;;;;;;;5128465;27;20105;-84
2023/10/17 08:07:22;;;;;;;0.60;0.60;;;;;;;;;;5148947;27;20129;-82
2023/10/17 08:09:56;;;;;;;0.68;0.68;;;;;;;;;;5145391;27;20525;-83
2023/10/17 08:12:22;;;;;;;0.70;0.63;;;;;;;;;;5126857;27;20412;-89
2023/10/17 08:14:58;;;;;;;0.75;0.73;;;;;;;;;;5128318;27;20023;-86
2023/10/17 08:17:27;;;;;;;3.13;1.00;;;;;;;;;;5148094;27;20087;-84
2023/10/17 08:20:38;;;;;;;0.73;0.63;;;;;;;;;;5151407;27;20030;-86
2023/10/17 08:23:06;;;;;;;1.15;1.05;;;;;;;;;;5150593;27;20046;-87
2023/10/17 08:25:32;;;;;;;0.82;0.73;;;;;;;;;;5132364;27;20027;-84
2023/10/17 08:27:58;;;;;;;3.08;1.05;;;;;;;;;;5151341;27;20019;-85
2023/10/17 08:30:25;;;;;;;2.05;1.50;;;;;;;;;;5151930;27;20512;-84
2023/10/17 08:33:36;;;;;;;1.30;1.20;;;;;;;;;;5150904;27;20042;-85
2023/10/17 08:35:51;;;;;;;3.35;1.15;;;;;;;;;;5148525;27;20474;-86
2023/10/17 08:38:17;;;;;;;1.88;1.10;;;;;;;;;;5155497;27;20068;-84
2023/10/17 08:40:43;;;;;;;5.13;1.45;;;;;;;;;;5136356;27;20447;-86
2023/10/17 08:43:20;;;;;;;3.35;1.25;;;;;;;;;;5136869;27;20030;-86
2023/10/17 08:45:47;;;;;;;0.50;0.50;;;;;;;;;;5154788;27;20040;-86
2023/10/17 08:48:13;;;;;;;0.47;0.47;;;;;;;;;;5156083;27;20027;-87
2023/10/17 08:50:39;;;;;;;0.60;0.60;;;;;;;;;;5136506;27;20539;-85
2023/10/17 08:53:13;;;;;;;2.17;0.95;;;;;;;;;;5135344;27;20023;-85
2023/10/17 08:55:40;;;;;;;0.65;0.47;;;;;;;;;;5134718;27;20496;-84
2023/10/17 08:58:08;;;;;;;2.47;0.82;;;;;;;;;;5134060;27;20119;-87
2023/10/17 09:03:35;;;;;;;0.77;0.65;;;;;;;;;;5154246;27;20390;-85
2023/10/17 09:11:29;;;;;;;0.70;0.70;;;;;;;;;;5155900;27;20038;-87
2023/10/17 09:17:21;;;;;;;2.97;1.02;;;;;;;;;;5133277;27;20041;-86
2023/10/17 09:19:47;;;;;;;1.85;0.85;;;;;;;;;;5136736;27;20383;-86
2023/10/17 09:22:15;;;;;;;1.50;1.00;;;;;;;;;;5154121;27;20050;-86
2023/10/17 09:24:40;;;;;;;0.75;0.60;;;;;;;;;;5135625;27;20046;-86
2023/10/17 09:27:10;;;;;;;1.77;1.60;;;;;;;;;;5153632;27;20172;-86
2023/10/17 09:29:50;;;;;;;1.08;0.80;;;;;;;;;;5136129;27;22027;-85
2023/10/17 09:32:34;;;;;;;0.57;0.57;;;;;;;;;;5153801;27;20054;-85
2023/10/17 09:35:15;;;;;;;1.05;0.93;;;;;;;;;;5153702;27;20475;-87
2023/10/17 09:37:45;;;;;;;1.17;0.80;;;;;;;;;;5153401;27;20105;-87
2023/10/17 09:40:14;;;;;;;3.60;1.52;;;;;;;;;;5154672;27;20111;-85
2023/10/17 09:42:44;;;;;;;1.27;0.90;;;;;;;;;;5152457;27;20179;-86
2023/10/17 09:45:16;;;;;;;3.55;1.10;;;;;;;;;;5131969;27;20279;-85
2023/10/17 09:47:47;;;;;;;1.23;0.85;;;;;;;;;;5149495;27;20015;-84
2023/10/17 09:50:16;;;;;;;0.93;0.70;;;;;;;;;;5152679;27;20489;-87
2023/10/17 09:52:42;;;;;;;1.02;0.80;;;;;;;;;;5153691;27;20435;-84
2023/10/17 09:55:13;;;;;;;1.83;0.80;;;;;;;;;;5134402;27;20474;-86
2023/10/17 09:57:41;;;;;;;0.73;0.70;;;;;;;;;;5132501;27;20026;-84
2023/10/17 10:00:18;;;;;;;0.82;0.82;;;;;;;;;;5134767;27;20068;-85
2023/10/17 10:02:47;;;;;;;4.60;0.80;;;;;;;;;;5156158;27;20033;-84
2023/10/17 10:05:29;;;;;;;0.80;0.77;;;;;;;;;;5139835;27;20428;-85
2023/10/17 10:08:02;;;;;;;0.80;0.60;;;;;;;;;;5141584;27;20443;-86
2023/10/17 10:10:46;;;;;;;0.88;0.77;;;;;;;;;;5156828;27;20018;-86
2023/10/17 10:16:15;;;;;;;1.77;1.10;;;;;;;;;;5093759;28;20489;-90
2023/10/17 10:18:48;;;;;;;0.77;0.60;;;;;;;;;;5090528;28;20054;-89
2023/10/17 10:21:15;;;;;;;0.47;0.30;;;;;;;;;;5095064;28;20470;-83
2023/10/17 10:23:42;;;;;;;0.98;0.73;;;;;;;;;;5072066;28;20029;-86
2023/10/17 10:26:11;;;;;;;0.77;0.65;;;;;;;;;;5076471;28;20004;-85
2023/10/17 10:28:40;;;;;;;1.05;0.68;;;;;;;;;;5070377;28;20029;-85
2023/10/17 10:31:29;;;;;;;2.67;1.45;;;;;;;;;;5096612;28;20021;-85
2023/10/17 10:33:55;;;;;;;0.82;0.82;;;;;;;;;;5088594;28;20418;-84
2023/10/17 10:36:26;;;;;;;1.45;0.85;;;;;;;;;;5072877;28;20028;-84
2023/10/17 10:38:56;;;;;;;1.13;1.00;;;;;;;;;;5079696;28;20534;-87
2023/10/17 10:41:25;;;;;;;1.17;0.70;;;;;;;;;;5075387;28;20439;-85
2023/10/17 10:43:58;;;;;;;1.38;1.13;;;;;;;;;;5074047;28;20071;-86
2023/10/17 10:46:23;;;;;;;6.40;0.88;;;;;;;;;;5072306;28;20021;-87
2023/10/17 10:48:53;;;;;;;0.70;0.60;;;;;;;;;;5072789;28;20029;-86
2023/10/17 10:51:24;;;;;;;0.55;0.55;;;;;;;;;;5072775;28;20115;-86
2023/10/17 10:53:54;;;;;;;1.27;0.95;;;;;;;;;;5078793;28;20041;-84
2023/10/17 10:56:26;;;;;;;0.75;0.75;;;;;;;;;;5078764;28;20468;-86
2023/10/17 10:58:55;;;;;;;1.42;0.77;;;;;;;;;;5078726;28;20024;-86
2023/10/17 11:01:21;;;;;;;0.80;0.50;;;;;;;;;;5073468;28;20071;-85
2023/10/17 11:03:48;;;;;;;1.15;0.73;;;;;;;;;;5073976;28;20021;-85
2023/10/17 11:06:15;;;;;;;1.05;0.88;;;;;;;;;;5077161;28;20468;-84
2023/10/17 11:08:43;;;;;;;11.73;1.85;;;;;;;;;;5073484;28;20031;-86
2023/10/17 11:11:10;;;;;;;8.18;1.10;;;;;;;;;;5081471;28;20020;-84
2023/10/17 11:13:40;;;;;;;1.90;1.15;;;;;;;;;;5079624;28;20024;-85
2023/10/17 11:16:07;;;;;;;2.55;1.13;;;;;;;;;;5074498;28;20068;-83
2023/10/17 11:18:38;;;;;;;2.35;1.15;;;;;;;;;;5073030;28;20568;-85
2023/10/17 11:21:05;;;;;;;1.10;0.73;;;;;;;;;;5069208;28;20031;-84
2023/10/17 11:23:33;;;;;;;0.75;0.60;;;;;;;;;;5077333;28;20036;-86
2023/10/17 11:26:03;;;;;;;3.55;1.02;;;;;;;;;;5066750;28;20021;-85
2023/10/17 11:28:29;;;;;;;0.85;0.68;;;;;;;;;;5059007;28;20087;-85
2023/10/17 11:30:58;;;;;;;1.08;0.88;;;;;;;;;;5061035;28;20384;-85
2023/10/17 11:33:37;;;;;;;1.30;1.02;;;;;;;;;;5064554;28;20021;-84
2023/10/17 11:36:12;;;;;;;1.87;1.00;;;;;;;;;;5062061;28;20420;-86
2023/10/17 11:38:38;;;;;;;1.17;0.85;;;;;;;;;;5061815;28;20039;-87
2023/10/17 11:41:05;;;;;;;0.98;0.65;;;;;;;;;;5065680;28;20028;-85
2023/10/17 11:43:42;;;;;;;5.90;0.77;;;;;;;;;;5066345;28;20362;-83
2023/10/17 11:46:12;;;;;;;1.38;0.80;;;;;;;;;;5060301;28;20040;-85
2023/10/17 11:48:44;;;;;;;1.17;1.08;;;;;;;;;;5059093;28;20469;-84
2023/10/17 11:51:17;;;;;;;2.67;1.20;;;;;;;;;;5055407;28;20492;-87
2023/10/17 11:54:09;;;;;;;2.08;1.55;;;;;;;;;;5058359;28;20491;-87
2023/10/17 11:56:41;;;;;;;1.02;0.93;;;;;;;;;;5059854;28;20016;-86
2023/10/17 11:59:08;;;;;;;1.92;1.38;;;;;;;;;;5067284;28;20035;-87
2023/10/17 12:01:35;;;;;;;1.33;1.05;;;;;;;;;;5060457;28;20365;-85
2023/10/17 12:04:06;;;;;;;0.75;0.70;;;;;;;;;;5063979;28;20031;-86
2023/10/17 12:06:33;;;;;;;0.43;0.40;;;;;;;;;;5060854;28;20053;-86
2023/10/17 12:08:59;;;;;;;6.60;1.27;;;;;;;;;;5063049;28;21188;-87
2023/10/17 12:11:25;;;;;;;1.75;0.95;;;;;;;;;;5059691;28;20029;-85
2023/10/17 12:13:54;;;;;;;1.73;1.10;;;;;;;;;;5063301;28;20032;-87
2023/10/17 12:16:25;;;;;;;1.38;0.85;;;;;;;;;;5060944;28;20472;-85
2023/10/17 12:18:52;;;;;;;1.02;0.90;;;;;;;;;;5061588;28;20017;-85
2023/10/17 12:21:18;;;;;;;1.35;0.80;;;;;;;;;;5061961;28;20029;-84
2023/10/17 12:23:43;;;;;;;0.90;0.70;;;;;;;;;;5065030;28;20472;-87
2023/10/17 12:26:17;;;;;;;1.63;0.90;;;;;;;;;;5057763;28;20020;-86
2023/10/17 12:28:43;;;;;;;0.93;0.75;;;;;;;;;;5063515;28;20036;-86
2023/10/17 12:31:16;;;;;;;1.23;0.85;;;;;;;;;;5063124;28;20028;-85
2023/10/17 12:33:42;;;;;;;1.67;1.17;;;;;;;;;;5064938;28;20388;-86
2023/10/17 12:36:07;;;;;;;1.70;0.98;;;;;;;;;;5059944;28;20107;-85
2023/10/17 12:38:35;;;;;;;0.65;0.60;;;;;;;;;;5062325;28;20047;-86
2023/10/17 12:41:06;;;;;;;1.58;1.48;;;;;;;;;;5059088;28;20028;-86
2023/10/17 12:43:33;;;;;;;1.90;0.60;;;;;;;;;;5075511;28;20025;-87
2023/10/17 12:45:58;;;;;;;1.02;0.77;;;;;;;;;;5065501;28;20017;-85
2023/10/17 12:48:23;;;;;;;1.35;0.73;;;;;;;;;;5061429;28;20032;-86
2023/10/17 12:50:49;;;;;;;1.25;1.08;;;;;;;;;;5065424;28;20028;-86
2023/10/17 12:53:14;;;;;;;0.98;0.75;;;;;;;;;;5063118;28;20469;-86
2023/10/17 12:55:40;;;;;;;0.93;0.75;;;;;;;;;;5061722;28;20033;-87
2023/10/17 12:58:18;;;;;;;2.72;1.23;;;;;;;;;;5061397;28;20447;-86
2023/10/17 13:00:47;;;;;;;1.20;1.10;;;;;;;;;;5063589;28;20107;-87
2023/10/17 13:03:12;;;;;;;1.17;1.02;;;;;;;;;;5058067;28;20036;-90
2023/10/17 13:05:38;;;;;;;1.48;1.10;;;;;;;;;;5059026;28;20437;-86
2023/10/17 13:08:04;;;;;;;1.38;1.02;;;;;;;;;;5063041;28;20039;-87
2023/10/17 13:10:30;;;;;;;3.17;1.00;;;;;;;;;;5059255;28;20024;-86
2023/10/17 13:12:58;;;;;;;0.93;0.70;;;;;;;;;;5063729;28;20028;-91
2023/10/17 13:15:24;;;;;;;2.00;1.35;;;;;;;;;;5058130;28;20033;-87
2023/10/17 13:17:54;;;;;;;1.52;1.17;;;;;;;;;;5058198;28;20095;-88
2023/10/17 13:20:31;;;;;;;0.40;0.40;;;;;;;;;;5058401;28;20496;-84
2023/10/17 13:23:03;;;;;;;1.08;0.68;;;;;;;;;;5061083;28;20031;-87
2023/10/17 13:25:33;;;;;;;2.28;1.45;;;;;;;;;;5058044;28;20492;-82
2023/10/17 13:27:58;;;;;;;0.73;0.70;;;;;;;;;;5057116;28;20104;-87
2023/10/17 13:30:24;;;;;;;2.08;1.58;;;;;;;;;;5056997;28;20104;-87
2023/10/17 13:32:52;;;;;;;0.77;0.68;;;;;;;;;;5061460;28;20033;-87
2023/10/17 13:35:20;;;;;;;1.80;1.05;;;;;;;;;;5056323;28;20044;-86
2023/10/17 13:37:52;;;;;;;1.42;0.95;;;;;;;;;;5059467;28;20062;-85
2023/10/17 13:40:23;;;;;;;0.80;0.68;;;;;;;;;;5059986;28;20040;-86
2023/10/17 13:42:52;;;;;;;2.47;1.40;;;;;;;;;;5056504;28;20380;-86
2023/10/17 13:45:21;;;;;;;1.38;1.00;;;;;;;;;;5062792;28;20021;-88
2023/10/17 13:47:48;;;;;;;1.52;0.90;;;;;;;;;;5059058;28;20405;-87
2023/10/17 13:50:15;;;;;;;2.40;1.52;;;;;;;;;;5056253;28;20025;-86
2023/10/17 13:52:41;;;;;;;2.78;1.00;;;;;;;;;;5056470;28;20031;-85
2023/10/17 13:55:09;;;;;;;1.75;1.60;;;;;;;;;;5065535;28;20044;-88
2023/10/17 13:57:38;;;;;;;1.73;1.15;;;;;;;;;;5059420;28;20384;-89
2023/10/17 14:00:09;;;;;;;;;;;;;;;;;;5060254;28;20063;-87
2023/10/17 14:02:34;;;;;;;;;;;;;;;;;;5059369;28;19920;-89
2023/10/17 14:05:00;;;;;;;1.40;0.85;;;;;;;;;;5057286;28;19912;-88
2023/10/17 14:07:25;;;;;;;1.77;1.08;;;;;;;;;;5056082;28;20481;-87
2023/10/17 14:09:55;;;;;;;2.00;1.63;;;;;;;;;;5064346;28;20047;-87
2023/10/17 14:12:21;;;;;;;0.98;0.77;;;;;;;;;;5057455;28;20170;-86
2023/10/17 14:14:47;;;;;;;1.90;1.33;;;;;;;;;;5060117;28;20396;-86
2023/10/17 14:17:12;;;;;;;0.77;0.70;;;;;;;;;;5063024;28;20039;-85
2023/10/17 14:19:44;;;;;;;0.80;0.80;;;;;;;;;;5056348;28;20024;-87
2023/10/17 14:27:29;;;;;;;1.52;1.33;;;;;;;;;;5058620;28;20381;-85
2023/10/17 14:29:58;;;;;;;1.35;0.98;;;;;;;;;;5061504;28;20035;-85
2023/10/17 14:32:26;;;;;;;3.40;1.35;;;;;;;;;;5057418;28;20032;-85
2023/10/17 14:34:52;;;;;;;2.38;1.35;;;;;;;;;;5055778;28;20024;-85
2023/10/17 14:37:18;;;;;;;4.57;1.60;;;;;;;;;;5056871;28;20748;-86
2023/10/17 14:39:43;;;;;;;2.05;1.15;;;;;;;;;;5058301;28;20112;-83
2023/10/17 14:42:10;;;;;;;3.50;1.30;;;;;;;;;;5052968;28;20048;-82
2023/10/17 14:44:37;;;;;;;3.95;1.30;;;;;;;;;;5053076;28;20468;-83
2023/10/17 14:47:06;;;;;;;1.08;0.88;;;;;;;;;;5059642;28;20131;-86
2023/10/17 14:49:31;;;;;;;1.52;1.42;;;;;;;;;;5052933;28;20071;-81
2023/10/17 14:51:57;;;;;;;2.40;1.13;;;;;;;;;;5052559;28;20037;-83
2023/10/17 14:54:23;;;;;;;2.08;1.45;;;;;;;;;;5051826;28;20033;-83
2023/10/17 14:56:53;;;;;;;1.88;1.38;;;;;;;;;;5051864;28;20028;-83
2023/10/17 14:59:18;;;;;;;1.23;1.10;;;;;;;;;;5055991;28;20055;-81
2023/10/17 15:01:45;;;;;;;2.45;1.23;;;;;;;;;;5058440;28;20032;-82
2023/10/17 15:04:11;;;;;;;1.88;1.20;;;;;;;;;;5055733;28;20029;-81
2023/10/17 15:06:36;;;;;;;1.50;1.40;;;;;;;;;;5052050;28;20033;-82
2023/10/17 15:09:05;;;;;;;1.15;0.80;;;;;;;;;;5049620;28;20017;-82
2023/10/17 15:11:32;;;;;;;1.52;1.05;;;;;;;;;;5053306;28;20026;-81
2023/10/17 15:13:59;;;;;;;1.58;1.25;;;;;;;;;;5050374;28;20059;-81
2023/10/17 15:16:25;;;;;;;1.77;1.20;;;;;;;;;;5063132;28;20784;-81
2023/10/17 15:18:54;;;;;;;2.85;1.42;;;;;;;;;;5061573;28;20029;-81
2023/10/17 15:21:21;;;;;;;2.67;1.15;;;;;;;;;;5056282;28;20028;-81
2023/10/17 15:23:46;;;;;;;1.75;1.65;;;;;;;;;;5058673;28;20388;-81
2023/10/17 15:26:12;;;;;;;2.00;1.15;;;;;;;;;;5054490;28;20016;-81
2023/10/17 15:28:45;;;;;;;6.43;1.42;;;;;;;;;;5057936;28;20472;-82
2023/10/17 15:31:12;;;;;;;3.55;2.33;;;;;;;;;;5061082;28;20028;-82
2023/10/17 15:33:38;;;;;;;1.88;1.30;;;;;;;;;;5052757;28;20037;-82
2023/10/17 15:36:12;;;;;;;1.67;1.25;;;;;;;;;;5061287;28;20503;-82
2023/10/17 15:38:42;;;;;;;2.30;1.90;;;;;;;;;;5052976;28;20384;-81
2023/10/17 15:41:11;;;;;;;;;;;;;;;;;;5057985;28;20116;-81
2023/10/17 15:43:37;;;;;;;2.85;2.28;;;;;;;;;;5056734;28;19916;-82
2023/10/17 15:46:03;;;;;;;1.55;1.35;;;;;;;;;;5062552;28;20032;-83
2023/10/17 15:48:29;;;;;;;1.90;1.20;;;;;;;;;;5055493;28;20032;-82
2023/10/17 15:50:55;;;;;;;2.22;1.90;;;;;;;;;;5063469;28;20027;-82
2023/10/17 15:53:28;;;;;;;1.17;1.05;;;;;;;;;;5060345;28;20025;-82
2023/10/17 15:55:55;;;;;;;1.30;1.17;;;;;;;;;;5051221;28;20384;-81
2023/10/17 15:58:22;;;;;;;1.33;0.65;;;;;;;;;;5052027;28;20035;-82
2023/10/17 16:00:48;;;;;;;2.90;1.55;;;;;;;;;;5054531;28;20078;-81
2023/10/17 16:03:15;;;;;;;1.35;0.90;;;;;;;;;;5056499;28;20032;-82
2023/10/17 16:05:42;;;;;;;2.83;1.98;;;;;;;;;;5064021;28;20020;-82
2023/10/17 16:08:10;;;;;;;0.50;0.50;;;;;;;;;;5055741;28;20036;-82
2023/10/17 16:10:39;;;;;;;1.60;0.52;;;;;;;;;;5055484;28;20032;-81
2023/10/17 16:13:08;;;;;;;0.55;0.55;;;;;;;;;;5054864;28;20037;-82
2023/10/17 16:15:35;;;;;;;2.25;1.08;;;;;;;;;;5062757;28;20073;-84
2023/10/17 16:18:02;;;;;;;1.85;0.80;;;;;;;;;;5059834;28;20033;-83
2023/10/17 16:20:28;;;;;;;1.00;0.75;;;;;;;;;;5055943;28;20034;-82
2023/10/17 16:22:54;;;;;;;2.03;1.27;;;;;;;;;;5060525;28;20029;-83
2023/10/17 16:25:24;;;;;;;0.75;0.63;;;;;;;;;;5059892;28;20033;-82
2023/10/17 16:27:50;;;;;;;3.30;1.60;;;;;;;;;;5060855;28;20539;-85
2023/10/17 16:30:16;;;;;;;0.65;0.60;;;;;;;;;;5054561;28;20029;-82
2023/10/17 16:32:41;;;;;;;2.00;1.23;;;;;;;;;;5060672;28;20025;-82
2023/10/17 16:35:07;;;;;;;2.28;1.08;;;;;;;;;;5058838;28;21613;-83
2023/10/17 16:37:34;;;;;;;2.05;1.33;;;;;;;;;;5064089;28;20037;-81
2023/10/17 16:40:00;;;;;;;0.50;0.50;;;;;;;;;;5057037;28;20527;-81
2023/10/17 16:42:26;;;;;;;1.98;1.20;;;;;;;;;;5062914;28;20146;-80
2023/10/17 16:44:52;;;;;;;0.43;0.40;;;;;;;;;;5060979;28;20032;-81
2023/10/17 16:47:19;;;;;;;2.47;1.88;;;;;;;;;;5060079;28;20946;-82
2023/10/17 16:49:45;;;;;;;1.55;1.10;;;;;;;;;;5059094;28;20709;-82
2023/10/17 16:52:12;;;;;;;5.20;0.88;;;;;;;;;;5062579;28;20025;-81
2023/10/17 16:54:40;;;;;;;0.85;0.85;;;;;;;;;;5060227;28;20024;-83
2023/10/17 16:57:06;;;;;;;1.48;0.65;;;;;;;;;;5059006;28;20094;-85
2023/10/17 16:59:31;;;;;;;1.98;1.23;;;;;;;;;;5059267;28;20563;-84
2023/10/17 17:01:58;;;;;;;3.03;1.40;;;;;;;;;;5062942;28;20061;-84
2023/10/17 17:04:23;;;;;;;2.50;1.33;;;;;;;;;;5060527;28;20071;-85
2023/10/17 17:06:51;;;;;;;1.35;1.10;;;;;;;;;;5063456;28;20029;-84
2023/10/17 17:09:20;;;;;;;3.78;1.80;;;;;;;;;;5059818;28;20028;-84
2023/10/17 17:11:50;;;;;;;1.80;1.20;;;;;;;;;;5062885;28;20032;-84
2023/10/17 17:14:17;;;;;;;2.08;1.38;;;;;;;;;;5058222;28;20044;-85
2023/10/17 17:16:44;;;;;;;2.10;1.67;;;;;;;;;;5059378;28;20059;-86
2023/10/17 17:19:11;;;;;;;2.10;1.60;;;;;;;;;;5056139;28;20051;-85
2023/10/17 17:21:36;;;;;;;3.75;2.28;;;;;;;;;;5061559;28;20402;-85
2023/10/17 17:24:07;;;;;;;1.98;0.85;;;;;;;;;;5061831;28;20036;-84
2023/10/17 17:26:32;;;;;;;1.63;1.25;;;;;;;;;;5055606;28;20050;-83
2023/10/17 17:28:59;;;;;;;0.90;0.90;;;;;;;;;;5062323;28;20034;-84
2023/10/17 17:31:25;;;;;;;0.93;0.90;;;;;;;;;;5055815;28;20116;-82
2023/10/17 17:33:50;;;;;;;3.20;1.98;;;;;;;;;;5062369;28;20103;-83
2023/10/17 17:36:18;;;;;;;3.03;2.13;;;;;;;;;;5055566;28;20036;-83
2023/10/17 17:38:46;;;;;;;4.60;2.25;;;;;;;;;;5057905;28;20039;-85
2023/10/17 17:41:13;;;;;;;7.03;2.72;;;;;;;;;;5060122;28;20376;-85
2023/10/17 17:43:38;;;;;;;1.08;0.98;;;;;;;;;;5059149;28;20024;-84
2023/10/17 17:46:04;;;;;;;2.17;1.13;;;;;;;;;;5061064;28;20027;-83
2023/10/17 17:48:31;;;;;;;1.05;1.02;;;;;;;;;;5058696;28;20123;-83
2023/10/17 17:50:57;;;;;;;2.70;1.50;;;;;;;;;;5055006;28;20396;-82
2023/10/17 17:53:22;;;;;;;0.82;0.82;;;;;;;;;;5054572;28;20024;-80
2023/10/17 17:55:48;;;;;;;2.55;1.08;;;;;;;;;;5054506;28;20230;-84
2023/10/17 17:58:14;;;;;;;1.02;0.70;;;;;;;;;;5061536;28;20040;-83
2023/10/17 18:00:39;;;;;;;1.40;0.73;;;;;;;;;;5056890;28;20025;-83
2023/10/17 18:03:05;;;;;;;1.38;0.85;;;;;;;;;;5058282;28;20042;-83
2023/10/17 18:05:30;;;;;;;2.47;1.27;;;;;;;;;;5071527;28;20033;-83
2023/10/17 18:07:56;;;;;;;0.65;0.65;;;;;;;;;;5058407;28;20028;-83
2023/10/17 18:10:21;;;;;;;0.93;0.88;;;;;;;;;;5050661;28;20025;-81
2023/10/17 18:12:48;;;;;;;2.80;1.50;;;;;;;;;;5062964;28;20028;-79
2023/10/17 18:15:14;;;;;;;1.80;1.35;;;;;;;;;;5063183;28;20043;-79
2023/10/17 18:17:40;;;;;;;1.67;1.38;;;;;;;;;;5055253;28;20041;-83
2023/10/17 18:20:12;;;;;;;9.55;1.30;;;;;;;;;;5061557;28;20035;-81
2023/10/17 18:22:38;;;;;;;2.25;1.65;;;;;;;;;;5053767;28;20787;-82
2023/10/17 18:25:03;;;;;;;1.55;0.88;;;;;;;;;;5059489;28;20025;-84
2023/10/17 18:27:29;;;;;;;3.85;0.60;;;;;;;;;;5060560;28;20036;-83
2023/10/17 18:29:55;;;;;;;1.88;0.93;;;;;;;;;;5066063;28;20103;-82
2023/10/17 18:32:20;;;;;;;2.50;1.15;;;;;;;;;;5058921;28;20048;-83
2023/10/17 18:34:46;;;;;;;0.63;0.63;;;;;;;;;;5052866;28;20033;-83
2023/10/17 18:37:11;;;;;;;1.55;1.45;;;;;;;;;;5060408;28;20025;-82
2023/10/17 18:39:38;;;;;;;1.73;1.27;;;;;;;;;;5065779;28;20025;-82
2023/10/17 18:42:05;;;;;;;1.17;0.95;;;;;;;;;;5066936;28;20043;-82
2023/10/17 18:44:30;;;;;;;1.33;1.02;;;;;;;;;;5066517;28;20020;-81
2023/10/17 18:46:56;;;;;;;1.38;1.27;;;;;;;;;;5066583;28;20043;-81
2023/10/17 18:49:21;;;;;;;1.65;1.52;;;;;;;;;;5056534;28;20028;-82
